sensor_id;sensor_type;location;lat;lon;timestamp;P1;durP1;ratioP1;P2;durP2;ratioP2
77625;SDS011;66794;43.764;10.436;2023-11-19T00:00:05;28.95;;;21.25;;
77625;SDS011;66794;43.764;10.436;2023-11-19T00:02:56;32.13;;;20.70;;
77625;SDS011;66794;43.764;10.436;2023-11-19T00:05:42;37.13;;;22.85;;
77625;SDS011;66794;43.764;10.436;2023-11-19T00:08:27;34.65;;;22.42;;
77625;SDS011;66794;43.764;10.436;2023-11-19T00:11:14;37.47;;;22.42;;
77625;SDS011;66794;43.764;10.436;2023-11-19T00:14:01;31.75;;;22.58;;
77625;SDS011;66794;43.764;10.436;2023-11-19T00:16:46;34.28;;;22.23;;
77625;SDS011;66794;43.764;10.436;2023-11-19T00:19:32;35.35;;;22.02;;
77625;SDS011;66794;43.764;10.436;2023-11-19T00:22:18;31.38;;;21.50;;
77625;SDS011;66794;43.764;10.436;2023-11-19T00:25:04;32.53;;;21.48;;
77625;SDS011;66794;43.764;10.436;2023-11-19T00:27:51;34.63;;;22.02;;
77625;SDS011;66794;43.764;10.436;2023-11-19T00:30:38;37.63;;;21.95;;
77625;SDS011;66794;43.764;10.436;2023-11-19T00:33:26;28.98;;;21.73;;
77625;SDS011;66794;43.764;10.436;2023-11-19T00:36:11;29.77;;;22.35;;
77625;SDS011;66794;43.764;10.436;2023-11-19T00:38:57;30.65;;;20.65;;
77625;SDS011;66794;43.764;10.436;2023-11-19T00:41:43;31.98;;;22.23;;
77625;SDS011;66794;43.764;10.436;2023-11-19T00:44:29;36.45;;;24.77;;
77625;SDS011;66794;43.764;10.436;2023-11-19T00:47:15;34.50;;;24.45;;
77625;SDS011;66794;43.764;10.436;2023-11-19T00:50:01;34.50;;;23.52;;
77625;SDS011;66794;43.764;10.436;2023-11-19T00:52:50;33.80;;;22.13;;
77625;SDS011;66794;43.764;10.436;2023-11-19T00:55:36;37.67;;;23.95;;
77625;SDS011;66794;43.764;10.436;2023-11-19T00:58:22;36.70;;;25.85;;
77625;SDS011;66794;43.764;10.436;2023-11-19T01:01:08;40.13;;;28.38;;
77625;SDS011;66794;43.764;10.436;2023-11-19T01:03:53;32.15;;;23.67;;
77625;SDS011;66794;43.764;10.436;2023-11-19T01:06:39;35.67;;;24.92;;
77625;SDS011;66794;43.764;10.436;2023-11-19T01:09:25;35.25;;;24.15;;
77625;SDS011;66794;43.764;10.436;2023-11-19T01:12:11;34.83;;;24.90;;
77625;SDS011;66794;43.764;10.436;2023-11-19T01:14:58;33.20;;;24.05;;
77625;SDS011;66794;43.764;10.436;2023-11-19T01:17:43;34.00;;;22.15;;
77625;SDS011;66794;43.764;10.436;2023-11-19T01:20:29;33.33;;;23.02;;
77625;SDS011;66794;43.764;10.436;2023-11-19T01:23:15;33.42;;;21.63;;
77625;SDS011;66794;43.764;10.436;2023-11-19T01:26:01;27.88;;;19.73;;
77625;SDS011;66794;43.764;10.436;2023-11-19T01:28:46;31.25;;;21.92;;
77625;SDS011;66794;43.764;10.436;2023-11-19T01:31:33;29.10;;;20.02;;
77625;SDS011;66794;43.764;10.436;2023-11-19T01:34:19;31.60;;;20.05;;
77625;SDS011;66794;43.764;10.436;2023-11-19T01:37:05;28.33;;;20.30;;
77625;SDS011;66794;43.764;10.436;2023-11-19T01:39:51;33.30;;;20.83;;
77625;SDS011;66794;43.764;10.436;2023-11-19T01:42:37;30.73;;;21.05;;
77625;SDS011;66794;43.764;10.436;2023-11-19T01:45:26;31.70;;;19.20;;
77625;SDS011;66794;43.764;10.436;2023-11-19T01:48:14;31.77;;;21.27;;
77625;SDS011;66794;43.764;10.436;2023-11-19T01:51:00;31.33;;;21.55;;
77625;SDS011;66794;43.764;10.436;2023-11-19T01:53:47;39.53;;;25.63;;
77625;SDS011;66794;43.764;10.436;2023-11-19T01:56:35;39.67;;;26.88;;
77625;SDS011;66794;43.764;10.436;2023-11-19T01:59:25;40.15;;;24.95;;
77625;SDS011;66794;43.764;10.436;2023-11-19T02:02:12;36.28;;;25.20;;
77625;SDS011;66794;43.764;10.436;2023-11-19T02:04:58;38.22;;;24.73;;
77625;SDS011;66794;43.764;10.436;2023-11-19T02:07:44;34.50;;;23.83;;
77625;SDS011;66794;43.764;10.436;2023-11-19T02:10:31;36.03;;;24.85;;
77625;SDS011;66794;43.764;10.436;2023-11-19T02:13:18;34.47;;;24.52;;
77625;SDS011;66794;43.764;10.436;2023-11-19T02:16:04;40.50;;;26.27;;
77625;SDS011;66794;43.764;10.436;2023-11-19T02:18:50;34.78;;;24.65;;
77625;SDS011;66794;43.764;10.436;2023-11-19T02:21:36;38.40;;;24.95;;
77625;SDS011;66794;43.764;10.436;2023-11-19T02:24:22;34.17;;;25.17;;
77625;SDS011;66794;43.764;10.436;2023-11-19T02:27:16;41.83;;;26.02;;
77625;SDS011;66794;43.764;10.436;2023-11-19T02:30:14;42.22;;;25.60;;
77625;SDS011;66794;43.764;10.436;2023-11-19T02:33:00;37.83;;;24.98;;
77625;SDS011;66794;43.764;10.436;2023-11-19T02:35:50;34.83;;;23.52;;
77625;SDS011;66794;43.764;10.436;2023-11-19T02:38:36;34.10;;;24.00;;
77625;SDS011;66794;43.764;10.436;2023-11-19T02:41:23;35.67;;;23.33;;
77625;SDS011;66794;43.764;10.436;2023-11-19T02:44:09;35.35;;;24.58;;
77625;SDS011;66794;43.764;10.436;2023-11-19T02:46:55;35.97;;;25.15;;
77625;SDS011;66794;43.764;10.436;2023-11-19T02:49:41;35.22;;;24.58;;
77625;SDS011;66794;43.764;10.436;2023-11-19T02:52:28;37.67;;;26.42;;
77625;SDS011;66794;43.764;10.436;2023-11-19T02:55:14;37.70;;;25.35;;
77625;SDS011;66794;43.764;10.436;2023-11-19T02:57:59;37.55;;;25.50;;
77625;SDS011;66794;43.764;10.436;2023-11-19T03:00:46;42.33;;;25.95;;
77625;SDS011;66794;43.764;10.436;2023-11-19T03:03:42;36.63;;;24.73;;
77625;SDS011;66794;43.764;10.436;2023-11-19T03:06:28;39.08;;;26.45;;
77625;SDS011;66794;43.764;10.436;2023-11-19T03:09:14;41.30;;;27.48;;
77625;SDS011;66794;43.764;10.436;2023-11-19T03:12:00;33.33;;;24.85;;
77625;SDS011;66794;43.764;10.436;2023-11-19T03:14:46;36.85;;;24.60;;
77625;SDS011;66794;43.764;10.436;2023-11-19T03:17:33;36.70;;;25.17;;
77625;SDS011;66794;43.764;10.436;2023-11-19T03:20:19;35.58;;;24.48;;
77625;SDS011;66794;43.764;10.436;2023-11-19T03:23:06;33.92;;;23.17;;
77625;SDS011;66794;43.764;10.436;2023-11-19T03:25:51;34.33;;;24.48;;
77625;SDS011;66794;43.764;10.436;2023-11-19T03:28:37;33.20;;;24.23;;
77625;SDS011;66794;43.764;10.436;2023-11-19T03:31:23;35.92;;;24.55;;
77625;SDS011;66794;43.764;10.436;2023-11-19T03:34:10;34.30;;;24.55;;
77625;SDS011;66794;43.764;10.436;2023-11-19T03:36:56;36.08;;;24.65;;
77625;SDS011;66794;43.764;10.436;2023-11-19T03:39:42;34.95;;;24.08;;
77625;SDS011;66794;43.764;10.436;2023-11-19T03:42:28;34.58;;;24.15;;
77625;SDS011;66794;43.764;10.436;2023-11-19T03:45:15;36.40;;;25.02;;
77625;SDS011;66794;43.764;10.436;2023-11-19T03:48:01;35.90;;;24.23;;
77625;SDS011;66794;43.764;10.436;2023-11-19T03:50:47;34.25;;;23.40;;
77625;SDS011;66794;43.764;10.436;2023-11-19T03:53:34;35.30;;;23.98;;
77625;SDS011;66794;43.764;10.436;2023-11-19T03:56:20;29.35;;;21.52;;
77625;SDS011;66794;43.764;10.436;2023-11-19T03:59:06;29.88;;;22.02;;
77625;SDS011;66794;43.764;10.436;2023-11-19T04:01:53;31.90;;;19.67;;
77625;SDS011;66794;43.764;10.436;2023-11-19T04:04:39;26.30;;;19.75;;
77625;SDS011;66794;43.764;10.436;2023-11-19T04:07:25;28.52;;;20.00;;
77625;SDS011;66794;43.764;10.436;2023-11-19T04:10:11;32.80;;;21.45;;
77625;SDS011;66794;43.764;10.436;2023-11-19T04:12:57;27.05;;;19.33;;
77625;SDS011;66794;43.764;10.436;2023-11-19T04:15:42;33.67;;;21.83;;
77625;SDS011;66794;43.764;10.436;2023-11-19T04:18:28;29.55;;;21.73;;
77625;SDS011;66794;43.764;10.436;2023-11-19T04:21:14;31.48;;;23.02;;
77625;SDS011;66794;43.764;10.436;2023-11-19T04:24:01;37.22;;;24.50;;
77625;SDS011;66794;43.764;10.436;2023-11-19T04:26:47;36.03;;;24.67;;
77625;SDS011;66794;43.764;10.436;2023-11-19T04:29:33;32.85;;;23.60;;
77625;SDS011;66794;43.764;10.436;2023-11-19T04:32:19;33.78;;;23.85;;
77625;SDS011;66794;43.764;10.436;2023-11-19T04:35:06;35.05;;;23.08;;
77625;SDS011;66794;43.764;10.436;2023-11-19T04:37:52;32.22;;;23.10;;
77625;SDS011;66794;43.764;10.436;2023-11-19T04:40:38;35.80;;;24.30;;
77625;SDS011;66794;43.764;10.436;2023-11-19T04:43:24;32.20;;;22.75;;
77625;SDS011;66794;43.764;10.436;2023-11-19T04:46:10;32.25;;;23.90;;
77625;SDS011;66794;43.764;10.436;2023-11-19T04:48:55;33.20;;;22.38;;
77625;SDS011;66794;43.764;10.436;2023-11-19T04:51:41;38.35;;;23.05;;
77625;SDS011;66794;43.764;10.436;2023-11-19T04:54:28;36.30;;;23.00;;
77625;SDS011;66794;43.764;10.436;2023-11-19T04:57:14;32.10;;;22.33;;
77625;SDS011;66794;43.764;10.436;2023-11-19T05:00:00;31.90;;;21.10;;
77625;SDS011;66794;43.764;10.436;2023-11-19T05:02:45;28.83;;;21.52;;
77625;SDS011;66794;43.764;10.436;2023-11-19T05:05:31;30.67;;;21.50;;
77625;SDS011;66794;43.764;10.436;2023-11-19T05:08:17;32.60;;;21.77;;
77625;SDS011;66794;43.764;10.436;2023-11-19T05:11:03;30.75;;;22.05;;
77625;SDS011;66794;43.764;10.436;2023-11-19T05:13:49;32.25;;;22.10;;
77625;SDS011;66794;43.764;10.436;2023-11-19T05:16:35;33.15;;;22.33;;
77625;SDS011;66794;43.764;10.436;2023-11-19T05:19:21;28.58;;;22.55;;
77625;SDS011;66794;43.764;10.436;2023-11-19T05:22:07;31.85;;;21.35;;
77625;SDS011;66794;43.764;10.436;2023-11-19T05:24:53;32.70;;;22.80;;
77625;SDS011;66794;43.764;10.436;2023-11-19T05:27:38;30.90;;;21.15;;
77625;SDS011;66794;43.764;10.436;2023-11-19T05:30:24;31.33;;;20.73;;
77625;SDS011;66794;43.764;10.436;2023-11-19T05:33:10;28.02;;;20.48;;
77625;SDS011;66794;43.764;10.436;2023-11-19T05:35:56;28.67;;;19.80;;
77625;SDS011;66794;43.764;10.436;2023-11-19T05:38:42;32.50;;;20.42;;
77625;SDS011;66794;43.764;10.436;2023-11-19T05:41:28;32.25;;;21.27;;
77625;SDS011;66794;43.764;10.436;2023-11-19T05:44:14;28.30;;;19.85;;
77625;SDS011;66794;43.764;10.436;2023-11-19T05:46:59;30.27;;;20.10;;
77625;SDS011;66794;43.764;10.436;2023-11-19T05:49:45;34.00;;;20.60;;
77625;SDS011;66794;43.764;10.436;2023-11-19T05:52:31;30.63;;;19.88;;
77625;SDS011;66794;43.764;10.436;2023-11-19T05:55:18;27.08;;;19.10;;
77625;SDS011;66794;43.764;10.436;2023-11-19T05:58:04;25.85;;;18.13;;
77625;SDS011;66794;43.764;10.436;2023-11-19T06:00:52;27.92;;;18.40;;
77625;SDS011;66794;43.764;10.436;2023-11-19T06:03:38;24.10;;;17.52;;
77625;SDS011;66794;43.764;10.436;2023-11-19T06:06:24;25.13;;;16.73;;
77625;SDS011;66794;43.764;10.436;2023-11-19T06:09:09;24.08;;;18.52;;
77625;SDS011;66794;43.764;10.436;2023-11-19T06:11:55;26.08;;;17.92;;
77625;SDS011;66794;43.764;10.436;2023-11-19T06:14:42;27.38;;;18.25;;
77625;SDS011;66794;43.764;10.436;2023-11-19T06:17:28;25.50;;;18.08;;
77625;SDS011;66794;43.764;10.436;2023-11-19T06:20:14;26.33;;;17.90;;
77625;SDS011;66794;43.764;10.436;2023-11-19T06:23:00;28.45;;;18.95;;
77625;SDS011;66794;43.764;10.436;2023-11-19T06:25:45;23.63;;;18.10;;
77625;SDS011;66794;43.764;10.436;2023-11-19T06:28:31;28.13;;;18.88;;
77625;SDS011;66794;43.764;10.436;2023-11-19T06:31:17;26.60;;;18.27;;
77625;SDS011;66794;43.764;10.436;2023-11-19T06:34:03;26.70;;;18.23;;
77625;SDS011;66794;43.764;10.436;2023-11-19T06:36:49;25.75;;;18.98;;
77625;SDS011;66794;43.764;10.436;2023-11-19T06:39:34;27.45;;;19.45;;
77625;SDS011;66794;43.764;10.436;2023-11-19T06:42:21;27.20;;;19.45;;
77625;SDS011;66794;43.764;10.436;2023-11-19T06:45:07;26.33;;;18.25;;
77625;SDS011;66794;43.764;10.436;2023-11-19T06:47:53;31.25;;;18.95;;
77625;SDS011;66794;43.764;10.436;2023-11-19T06:50:38;31.85;;;18.95;;
77625;SDS011;66794;43.764;10.436;2023-11-19T06:53:24;25.25;;;17.42;;
77625;SDS011;66794;43.764;10.436;2023-11-19T06:56:23;28.85;;;17.73;;
77625;SDS011;66794;43.764;10.436;2023-11-19T06:59:09;27.13;;;17.42;;
77625;SDS011;66794;43.764;10.436;2023-11-19T07:01:55;27.48;;;18.48;;
77625;SDS011;66794;43.764;10.436;2023-11-19T07:04:40;180.98;;;120.38;;
77625;SDS011;66794;43.764;10.436;2023-11-19T07:07:27;119.78;;;79.18;;
77625;SDS011;66794;43.764;10.436;2023-11-19T07:10:13;45.20;;;29.27;;
77625;SDS011;66794;43.764;10.436;2023-11-19T07:12:59;47.03;;;31.70;;
77625;SDS011;66794;43.764;10.436;2023-11-19T07:15:45;39.20;;;25.75;;
77625;SDS011;66794;43.764;10.436;2023-11-19T07:18:31;28.88;;;19.05;;
77625;SDS011;66794;43.764;10.436;2023-11-19T07:21:17;27.58;;;17.45;;
77625;SDS011;66794;43.764;10.436;2023-11-19T07:24:02;26.45;;;17.20;;
77625;SDS011;66794;43.764;10.436;2023-11-19T07:26:48;26.35;;;16.73;;
77625;SDS011;66794;43.764;10.436;2023-11-19T07:29:37;24.63;;;17.02;;
77625;SDS011;66794;43.764;10.436;2023-11-19T07:32:23;25.55;;;17.08;;
77625;SDS011;66794;43.764;10.436;2023-11-19T07:35:08;25.15;;;16.50;;
77625;SDS011;66794;43.764;10.436;2023-11-19T07:37:54;18.92;;;11.02;;
77625;SDS011;66794;43.764;10.436;2023-11-19T07:40:40;17.80;;;9.80;;
77625;SDS011;66794;43.764;10.436;2023-11-19T07:43:26;15.80;;;8.65;;
77625;SDS011;66794;43.764;10.436;2023-11-19T07:46:12;10.98;;;8.15;;
77625;SDS011;66794;43.764;10.436;2023-11-19T07:48:59;15.98;;;8.32;;
77625;SDS011;66794;43.764;10.436;2023-11-19T07:51:44;14.98;;;8.43;;
77625;SDS011;66794;43.764;10.436;2023-11-19T07:54:30;12.32;;;7.50;;
77625;SDS011;66794;43.764;10.436;2023-11-19T07:57:16;11.50;;;7.78;;
77625;SDS011;66794;43.764;10.436;2023-11-19T08:00:02;11.60;;;8.02;;
77625;SDS011;66794;43.764;10.436;2023-11-19T08:02:48;13.70;;;8.18;;
77625;SDS011;66794;43.764;10.436;2023-11-19T08:05:34;15.50;;;8.88;;
77625;SDS011;66794;43.764;10.436;2023-11-19T08:08:23;15.23;;;8.93;;
77625;SDS011;66794;43.764;10.436;2023-11-19T08:11:08;12.35;;;7.43;;
77625;SDS011;66794;43.764;10.436;2023-11-19T08:13:54;13.52;;;8.63;;
77625;SDS011;66794;43.764;10.436;2023-11-19T08:16:40;12.85;;;7.05;;
77625;SDS011;66794;43.764;10.436;2023-11-19T08:19:26;14.52;;;8.32;;
77625;SDS011;66794;43.764;10.436;2023-11-19T08:22:12;12.25;;;7.63;;
77625;SDS011;66794;43.764;10.436;2023-11-19T08:24:58;16.05;;;8.60;;
77625;SDS011;66794;43.764;10.436;2023-11-19T08:27:43;14.43;;;8.63;;
77625;SDS011;66794;43.764;10.436;2023-11-19T08:30:29;24.48;;;11.23;;
77625;SDS011;66794;43.764;10.436;2023-11-19T08:33:15;12.38;;;7.95;;
77625;SDS011;66794;43.764;10.436;2023-11-19T08:36:02;12.48;;;7.68;;
77625;SDS011;66794;43.764;10.436;2023-11-19T08:38:49;13.38;;;8.32;;
77625;SDS011;66794;43.764;10.436;2023-11-19T08:41:37;14.13;;;7.38;;
77625;SDS011;66794;43.764;10.436;2023-11-19T08:44:24;11.60;;;7.82;;
77625;SDS011;66794;43.764;10.436;2023-11-19T08:47:11;14.50;;;8.55;;
77625;SDS011;66794;43.764;10.436;2023-11-19T08:49:57;11.40;;;7.40;;
77625;SDS011;66794;43.764;10.436;2023-11-19T08:52:43;13.50;;;7.80;;
77625;SDS011;66794;43.764;10.436;2023-11-19T08:55:29;14.15;;;8.45;;
77625;SDS011;66794;43.764;10.436;2023-11-19T08:58:15;15.00;;;7.97;;
77625;SDS011;66794;43.764;10.436;2023-11-19T09:01:01;14.43;;;7.55;;
77625;SDS011;66794;43.764;10.436;2023-11-19T09:03:47;11.18;;;6.93;;
77625;SDS011;66794;43.764;10.436;2023-11-19T09:06:33;10.52;;;6.00;;
77625;SDS011;66794;43.764;10.436;2023-11-19T09:09:18;9.90;;;6.00;;
77625;SDS011;66794;43.764;10.436;2023-11-19T09:12:04;12.30;;;6.13;;
77625;SDS011;66794;43.764;10.436;2023-11-19T09:14:50;12.85;;;6.88;;
77625;SDS011;66794;43.764;10.436;2023-11-19T09:17:36;13.48;;;7.38;;
77625;SDS011;66794;43.764;10.436;2023-11-19T09:20:21;11.80;;;7.50;;
77625;SDS011;66794;43.764;10.436;2023-11-19T09:23:07;15.38;;;7.93;;
77625;SDS011;66794;43.764;10.436;2023-11-19T09:25:54;13.73;;;8.68;;
77625;SDS011;66794;43.764;10.436;2023-11-19T09:28:40;13.27;;;7.47;;
77625;SDS011;66794;43.764;10.436;2023-11-19T09:31:26;10.35;;;7.35;;
77625;SDS011;66794;43.764;10.436;2023-11-19T09:34:11;12.73;;;8.10;;
77625;SDS011;66794;43.764;10.436;2023-11-19T09:36:57;14.52;;;8.25;;
77625;SDS011;66794;43.764;10.436;2023-11-19T09:39:43;11.98;;;7.88;;
77625;SDS011;66794;43.764;10.436;2023-11-19T09:42:29;14.77;;;7.55;;
77625;SDS011;66794;43.764;10.436;2023-11-19T09:45:27;17.75;;;9.00;;
77625;SDS011;66794;43.764;10.436;2023-11-19T09:48:15;16.60;;;9.63;;
77625;SDS011;66794;43.764;10.436;2023-11-19T09:51:04;14.25;;;8.93;;
77625;SDS011;66794;43.764;10.436;2023-11-19T09:53:50;14.57;;;9.02;;
77625;SDS011;66794;43.764;10.436;2023-11-19T09:56:36;20.50;;;10.38;;
77625;SDS011;66794;43.764;10.436;2023-11-19T09:59:24;18.30;;;10.45;;
77625;SDS011;66794;43.764;10.436;2023-11-19T10:02:11;18.92;;;10.75;;
77625;SDS011;66794;43.764;10.436;2023-11-19T10:04:57;16.02;;;10.32;;
77625;SDS011;66794;43.764;10.436;2023-11-19T10:07:44;18.50;;;10.65;;
77625;SDS011;66794;43.764;10.436;2023-11-19T10:10:30;18.08;;;11.15;;
77625;SDS011;66794;43.764;10.436;2023-11-19T10:13:16;19.00;;;11.05;;
77625;SDS011;66794;43.764;10.436;2023-11-19T10:16:03;17.40;;;10.57;;
77625;SDS011;66794;43.764;10.436;2023-11-19T10:18:52;21.98;;;11.40;;
77625;SDS011;66794;43.764;10.436;2023-11-19T10:21:38;18.67;;;10.15;;
77625;SDS011;66794;43.764;10.436;2023-11-19T10:24:31;20.60;;;11.75;;
77625;SDS011;66794;43.764;10.436;2023-11-19T10:27:18;20.15;;;12.05;;
77625;SDS011;66794;43.764;10.436;2023-11-19T10:30:04;18.05;;;11.25;;
77625;SDS011;66794;43.764;10.436;2023-11-19T10:35:54;17.70;;;11.02;;
77625;SDS011;66794;43.764;10.436;2023-11-19T10:38:42;17.70;;;11.65;;
77625;SDS011;66794;43.764;10.436;2023-11-19T10:41:38;21.13;;;11.32;;
77625;SDS011;66794;43.764;10.436;2023-11-19T10:44:33;19.33;;;10.35;;
77625;SDS011;66794;43.764;10.436;2023-11-19T10:47:21;19.15;;;9.32;;
77625;SDS011;66794;43.764;10.436;2023-11-19T10:50:09;11.68;;;6.20;;
77625;SDS011;66794;43.764;10.436;2023-11-19T10:52:56;18.35;;;11.65;;
77625;SDS011;66794;43.764;10.436;2023-11-19T10:55:45;15.82;;;9.07;;
77625;SDS011;66794;43.764;10.436;2023-11-19T10:58:32;19.17;;;10.25;;
77625;SDS011;66794;43.764;10.436;2023-11-19T11:01:20;17.83;;;10.60;;
77625;SDS011;66794;43.764;10.436;2023-11-19T11:04:12;20.23;;;10.52;;
77625;SDS011;66794;43.764;10.436;2023-11-19T11:07:06;25.13;;;10.68;;
77625;SDS011;66794;43.764;10.436;2023-11-19T11:09:53;37.67;;;26.00;;
77625;SDS011;66794;43.764;10.436;2023-11-19T11:12:39;34.42;;;16.20;;
77625;SDS011;66794;43.764;10.436;2023-11-19T11:15:27;17.27;;;11.82;;
77625;SDS011;66794;43.764;10.436;2023-11-19T11:18:14;20.42;;;11.10;;
77625;SDS011;66794;43.764;10.436;2023-11-19T11:21:02;18.80;;;10.73;;
77625;SDS011;66794;43.764;10.436;2023-11-19T11:24:00;22.13;;;10.63;;
77625;SDS011;66794;43.764;10.436;2023-11-19T11:33:26;14.25;;;7.88;;
77625;SDS011;66794;43.764;10.436;2023-11-19T11:36:30;14.00;;;6.70;;
77625;SDS011;66794;43.764;10.436;2023-11-19T11:39:21;39.03;;;20.80;;
77625;SDS011;66794;43.764;10.436;2023-11-19T11:45:05;137.13;;;74.82;;
77625;SDS011;66794;43.764;10.436;2023-11-19T11:50:52;12.43;;;6.90;;
77625;SDS011;66794;43.764;10.436;2023-11-19T11:53:39;14.70;;;6.70;;
77625;SDS011;66794;43.764;10.436;2023-11-19T11:56:32;13.88;;;7.03;;
77625;SDS011;66794;43.764;10.436;2023-11-19T11:59:18;13.20;;;6.50;;
77625;SDS011;66794;43.764;10.436;2023-11-19T12:02:04;17.83;;;7.53;;
77625;SDS011;66794;43.764;10.436;2023-11-19T12:04:54;14.05;;;8.07;;
77625;SDS011;66794;43.764;10.436;2023-11-19T12:07:40;17.38;;;10.88;;
77625;SDS011;66794;43.764;10.436;2023-11-19T12:10:26;13.98;;;8.65;;
77625;SDS011;66794;43.764;10.436;2023-11-19T12:13:17;13.65;;;7.60;;
77625;SDS011;66794;43.764;10.436;2023-11-19T12:18:50;16.85;;;8.77;;
77625;SDS011;66794;43.764;10.436;2023-11-19T12:21:35;18.33;;;9.43;;
77625;SDS011;66794;43.764;10.436;2023-11-19T12:24:22;18.75;;;9.43;;
77625;SDS011;66794;43.764;10.436;2023-11-19T12:27:08;19.23;;;8.43;;
77625;SDS011;66794;43.764;10.436;2023-11-19T12:29:54;15.18;;;7.90;;
77625;SDS011;66794;43.764;10.436;2023-11-19T12:32:42;18.20;;;9.93;;
77625;SDS011;66794;43.764;10.436;2023-11-19T12:35:29;16.52;;;8.65;;
77625;SDS011;66794;43.764;10.436;2023-11-19T12:38:21;15.80;;;9.02;;
77625;SDS011;66794;43.764;10.436;2023-11-19T12:41:09;11.95;;;7.47;;
77625;SDS011;66794;43.764;10.436;2023-11-19T12:44:09;14.93;;;6.82;;
77625;SDS011;66794;43.764;10.436;2023-11-19T12:47:00;10.57;;;5.97;;
77625;SDS011;66794;43.764;10.436;2023-11-19T12:49:55;10.33;;;4.30;;
77625;SDS011;66794;43.764;10.436;2023-11-19T12:52:41;10.45;;;3.60;;
77625;SDS011;66794;43.764;10.436;2023-11-19T12:55:28;10.75;;;4.40;;
77625;SDS011;66794;43.764;10.436;2023-11-19T12:58:33;13.25;;;6.05;;
77625;SDS011;66794;43.764;10.436;2023-11-19T13:01:21;15.75;;;7.93;;
77625;SDS011;66794;43.764;10.436;2023-11-19T13:04:17;18.50;;;11.63;;
77625;SDS011;66794;43.764;10.436;2023-11-19T13:07:03;19.67;;;12.52;;
77625;SDS011;66794;43.764;10.436;2023-11-19T13:09:50;25.45;;;13.38;;
77625;SDS011;66794;43.764;10.436;2023-11-19T13:12:39;23.58;;;13.70;;
77625;SDS011;66794;43.764;10.436;2023-11-19T13:15:24;23.83;;;13.52;;
77625;SDS011;66794;43.764;10.436;2023-11-19T13:18:12;21.88;;;13.32;;
77625;SDS011;66794;43.764;10.436;2023-11-19T13:20:58;20.17;;;13.00;;
77625;SDS011;66794;43.764;10.436;2023-11-19T13:23:45;24.63;;;14.02;;
77625;SDS011;66794;43.764;10.436;2023-11-19T13:26:31;25.10;;;14.05;;
77625;SDS011;66794;43.764;10.436;2023-11-19T13:29:16;20.35;;;11.65;;
77625;SDS011;66794;43.764;10.436;2023-11-19T13:32:02;14.70;;;7.47;;
77625;SDS011;66794;43.764;10.436;2023-11-19T13:34:49;10.63;;;5.75;;
77625;SDS011;66794;43.764;10.436;2023-11-19T13:37:35;10.40;;;4.93;;
77625;SDS011;66794;43.764;10.436;2023-11-19T13:40:21;11.65;;;4.03;;
77625;SDS011;66794;43.764;10.436;2023-11-19T13:43:07;16.38;;;6.55;;
77625;SDS011;66794;43.764;10.436;2023-11-19T13:45:54;15.07;;;8.23;;
77625;SDS011;66794;43.764;10.436;2023-11-19T13:48:40;12.75;;;5.03;;
77625;SDS011;66794;43.764;10.436;2023-11-19T13:51:26;16.13;;;5.07;;
77625;SDS011;66794;43.764;10.436;2023-11-19T13:54:12;11.55;;;5.70;;
77625;SDS011;66794;43.764;10.436;2023-11-19T13:56:59;17.80;;;10.73;;
77625;SDS011;66794;43.764;10.436;2023-11-19T13:59:46;33.78;;;20.38;;
77625;SDS011;66794;43.764;10.436;2023-11-19T14:02:35;22.50;;;13.70;;
77625;SDS011;66794;43.764;10.436;2023-11-19T14:05:20;131.50;;;56.75;;
77625;SDS011;66794;43.764;10.436;2023-11-19T14:08:06;48.45;;;24.98;;
77625;SDS011;66794;43.764;10.436;2023-11-19T14:10:58;25.48;;;14.20;;
77625;SDS011;66794;43.764;10.436;2023-11-19T14:13:44;23.80;;;13.18;;
77625;SDS011;66794;43.764;10.436;2023-11-19T14:16:31;21.85;;;13.50;;
77625;SDS011;66794;43.764;10.436;2023-11-19T14:19:19;31.85;;;17.25;;
77625;SDS011;66794;43.764;10.436;2023-11-19T14:22:05;29.40;;;17.75;;
77625;SDS011;66794;43.764;10.436;2023-11-19T14:24:51;28.98;;;17.58;;
77625;SDS011;66794;43.764;10.436;2023-11-19T14:27:37;34.30;;;18.98;;
77625;SDS011;66794;43.764;10.436;2023-11-19T14:30:23;28.00;;;16.70;;
77625;SDS011;66794;43.764;10.436;2023-11-19T14:33:09;29.60;;;18.23;;
77625;SDS011;66794;43.764;10.436;2023-11-19T14:35:55;32.38;;;19.00;;
77625;SDS011;66794;43.764;10.436;2023-11-19T14:38:41;32.60;;;18.00;;
77625;SDS011;66794;43.764;10.436;2023-11-19T14:41:26;27.13;;;18.25;;
77625;SDS011;66794;43.764;10.436;2023-11-19T14:44:12;27.40;;;19.33;;
77625;SDS011;66794;43.764;10.436;2023-11-19T14:46:58;32.72;;;19.10;;
77625;SDS011;66794;43.764;10.436;2023-11-19T14:49:44;28.48;;;18.67;;
77625;SDS011;66794;43.764;10.436;2023-11-19T14:52:30;29.88;;;19.40;;
77625;SDS011;66794;43.764;10.436;2023-11-19T14:55:15;29.83;;;17.83;;
77625;SDS011;66794;43.764;10.436;2023-11-19T14:58:01;26.15;;;17.20;;
77625;SDS011;66794;43.764;10.436;2023-11-19T15:00:47;30.77;;;19.73;;
77625;SDS011;66794;43.764;10.436;2023-11-19T15:03:34;55.17;;;32.10;;
77625;SDS011;66794;43.764;10.436;2023-11-19T15:06:22;34.22;;;22.67;;
77625;SDS011;66794;43.764;10.436;2023-11-19T15:09:09;44.50;;;27.63;;
77625;SDS011;66794;43.764;10.436;2023-11-19T15:12:01;46.80;;;28.48;;
77625;SDS011;66794;43.764;10.436;2023-11-19T15:14:47;43.88;;;27.17;;
77625;SDS011;66794;43.764;10.436;2023-11-19T15:17:33;45.13;;;30.90;;
77625;SDS011;66794;43.764;10.436;2023-11-19T15:20:19;44.33;;;26.85;;
77625;SDS011;66794;43.764;10.436;2023-11-19T15:23:05;39.60;;;23.90;;
77625;SDS011;66794;43.764;10.436;2023-11-19T15:25:50;31.67;;;21.08;;
77625;SDS011;66794;43.764;10.436;2023-11-19T15:28:37;25.58;;;15.90;;
77625;SDS011;66794;43.764;10.436;2023-11-19T15:31:23;28.85;;;19.75;;
77625;SDS011;66794;43.764;10.436;2023-11-19T15:34:08;32.05;;;20.98;;
77625;SDS011;66794;43.764;10.436;2023-11-19T15:36:54;32.03;;;20.75;;
77625;SDS011;66794;43.764;10.436;2023-11-19T15:39:40;32.22;;;19.38;;
77625;SDS011;66794;43.764;10.436;2023-11-19T15:42:26;37.83;;;21.33;;
77625;SDS011;66794;43.764;10.436;2023-11-19T15:45:12;62.47;;;28.58;;
77625;SDS011;66794;43.764;10.436;2023-11-19T15:47:58;120.20;;;56.65;;
77625;SDS011;66794;43.764;10.436;2023-11-19T15:50:44;172.57;;;86.00;;
77625;SDS011;66794;43.764;10.436;2023-11-19T15:53:30;193.23;;;95.00;;
77625;SDS011;66794;43.764;10.436;2023-11-19T15:56:19;165.13;;;79.95;;
77625;SDS011;66794;43.764;10.436;2023-11-19T15:59:04;136.00;;;62.38;;
77625;SDS011;66794;43.764;10.436;2023-11-19T16:01:51;95.55;;;44.85;;
77625;SDS011;66794;43.764;10.436;2023-11-19T16:04:37;83.50;;;42.20;;
77625;SDS011;66794;43.764;10.436;2023-11-19T16:07:22;79.93;;;44.13;;
77625;SDS011;66794;43.764;10.436;2023-11-19T16:10:09;91.05;;;52.17;;
77625;SDS011;66794;43.764;10.436;2023-11-19T16:12:57;98.50;;;54.58;;
77625;SDS011;66794;43.764;10.436;2023-11-19T16:15:43;94.43;;;51.45;;
77625;SDS011;66794;43.764;10.436;2023-11-19T16:18:28;54.70;;;33.05;;
77625;SDS011;66794;43.764;10.436;2023-11-19T16:21:14;55.33;;;32.38;;